sensor_id;sensor_type;location;lat;lon;timestamp;pressure;altitude;pressure_sealevel;temperature;humidity
39729;BME280;25402;42.004;23.088;2023-05-07T00:00:24;97595.91;;;11.08;42.00
39729;BME280;25402;42.004;23.088;2023-05-07T00:02:51;97603.53;;;11.04;42.23
39729;BME280;25402;42.004;23.088;2023-05-07T00:05:18;97599.59;;;10.92;42.20
39729;BME280;25402;42.004;23.088;2023-05-07T00:07:46;97597.44;;;10.88;42.94
39729;BME280;25402;42.004;23.088;2023-05-07T00:10:13;97601.41;;;10.85;42.92
39729;BME280;25402;42.004;23.088;2023-05-07T00:12:41;97605.75;;;10.86;43.00
39729;BME280;25402;42.004;23.088;2023-05-07T00:15:09;97604.53;;;10.89;42.96
39729;BME280;25402;42.004;23.088;2023-05-07T00:17:36;97601.19;;;10.87;42.68
39729;BME280;25402;42.004;23.088;2023-05-07T00:20:04;97610.91;;;10.81;43.00
39729;BME280;25402;42.004;23.088;2023-05-07T00:22:31;97605.69;;;10.80;42.65
39729;BME280;25402;42.004;23.088;2023-05-07T00:24:58;97608.56;;;10.78;42.80
39729;BME280;25402;42.004;23.088;2023-05-07T00:27:25;97603.44;;;10.68;42.98
39729;BME280;25402;42.004;23.088;2023-05-07T00:29:54;97609.69;;;10.69;43.00
39729;BME280;25402;42.004;23.088;2023-05-07T00:32:20;97613.41;;;10.68;43.26
39729;BME280;25402;42.004;23.088;2023-05-07T00:34:47;97610.59;;;10.61;43.26
39729;BME280;25402;42.004;23.088;2023-05-07T00:37:14;97613.13;;;10.63;43.15
39729;BME280;25402;42.004;23.088;2023-05-07T00:39:41;97613.50;;;10.60;43.43
39729;BME280;25402;42.004;23.088;2023-05-07T00:42:08;97621.78;;;10.58;43.44
39729;BME280;25402;42.004;23.088;2023-05-07T00:44:35;97618.81;;;10.53;43.61
39729;BME280;25402;42.004;23.088;2023-05-07T00:47:04;97629.41;;;10.55;43.65
39729;BME280;25402;42.004;23.088;2023-05-07T00:49:37;97621.94;;;10.42;43.59
39729;BME280;25402;42.004;23.088;2023-05-07T00:52:06;97634.56;;;10.50;43.75
39729;BME280;25402;42.004;23.088;2023-05-07T00:54:34;97633.91;;;10.48;43.80
39729;BME280;25402;42.004;23.088;2023-05-07T00:57:02;97631.72;;;10.43;43.66
39729;BME280;25402;42.004;23.088;2023-05-07T00:59:30;97630.31;;;10.32;43.59
39729;BME280;25402;42.004;23.088;2023-05-07T01:01:57;97628.16;;;10.28;43.77
39729;BME280;25402;42.004;23.088;2023-05-07T01:04:26;97632.00;;;10.33;43.87
39729;BME280;25402;42.004;23.088;2023-05-07T01:06:55;97634.22;;;10.30;44.06
39729;BME280;25402;42.004;23.088;2023-05-07T01:09:23;97634.41;;;10.28;44.16
39729;BME280;25402;42.004;23.088;2023-05-07T01:11:50;97638.78;;;10.29;44.19
39729;BME280;25402;42.004;23.088;2023-05-07T01:14:18;97636.09;;;10.29;44.13
39729;BME280;25402;42.004;23.088;2023-05-07T01:16:46;97642.50;;;10.28;44.10
39729;BME280;25402;42.004;23.088;2023-05-07T01:19:14;97648.75;;;10.29;44.23
39729;BME280;25402;42.004;23.088;2023-05-07T01:21:47;97642.69;;;10.27;44.37
39729;BME280;25402;42.004;23.088;2023-05-07T01:24:16;97641.84;;;10.26;44.58
39729;BME280;25402;42.004;23.088;2023-05-07T01:26:44;97639.16;;;10.26;44.46
39729;BME280;25402;42.004;23.088;2023-05-07T01:29:11;97641.75;;;10.20;44.36
39729;BME280;25402;42.004;23.088;2023-05-07T01:31:38;97641.28;;;10.16;44.24
39729;BME280;25402;42.004;23.088;2023-05-07T01:34:08;97639.22;;;10.18;44.37
39729;BME280;25402;42.004;23.088;2023-05-07T01:36:38;97641.97;;;10.10;44.14
39729;BME280;25402;42.004;23.088;2023-05-07T01:39:06;97644.88;;;10.08;44.31
39729;BME280;25402;42.004;23.088;2023-05-07T01:41:36;97642.69;;;10.04;44.23
39729;BME280;25402;42.004;23.088;2023-05-07T01:44:05;97634.41;;;10.05;44.45
39729;BME280;25402;42.004;23.088;2023-05-07T01:46:32;97626.66;;;10.02;44.39
39729;BME280;25402;42.004;23.088;2023-05-07T01:48:59;97640.34;;;10.01;44.49
39729;BME280;25402;42.004;23.088;2023-05-07T01:51:26;97631.75;;;9.97;44.29
39729;BME280;25402;42.004;23.088;2023-05-07T01:53:53;97634.97;;;9.93;44.45
39729;BME280;25402;42.004;23.088;2023-05-07T01:56:21;97637.69;;;9.93;44.75
39729;BME280;25402;42.004;23.088;2023-05-07T01:58:49;97633.28;;;9.92;44.34
39729;BME280;25402;42.004;23.088;2023-05-07T02:01:17;97632.47;;;9.91;44.54
39729;BME280;25402;42.004;23.088;2023-05-07T02:03:44;97624.59;;;9.82;44.59
39729;BME280;25402;42.004;23.088;2023-05-07T02:06:11;97623.25;;;9.78;44.40
39729;BME280;25402;42.004;23.088;2023-05-07T02:08:38;97627.19;;;9.75;44.67
39729;BME280;25402;42.004;23.088;2023-05-07T02:11:05;97620.63;;;9.69;44.48
39729;BME280;25402;42.004;23.088;2023-05-07T02:13:33;97620.31;;;9.64;44.65
39729;BME280;25402;42.004;23.088;2023-05-07T02:16:01;97619.97;;;9.67;44.39
39729;BME280;25402;42.004;23.088;2023-05-07T02:18:28;97629.00;;;9.52;44.79
39729;BME280;25402;42.004;23.088;2023-05-07T02:20:55;97628.50;;;9.48;44.74
39729;BME280;25402;42.004;23.088;2023-05-07T02:23:22;97621.81;;;9.44;45.02
39729;BME280;25402;42.004;23.088;2023-05-07T02:25:51;97620.16;;;9.35;45.01
39729;BME280;25402;42.004;23.088;2023-05-07T02:28:17;97623.50;;;9.37;44.87
39729;BME280;25402;42.004;23.088;2023-05-07T02:30:44;97621.81;;;9.36;44.93
39729;BME280;25402;42.004;23.088;2023-05-07T02:33:13;97619.66;;;9.31;45.01
39729;BME280;25402;42.004;23.088;2023-05-07T02:35:39;97618.97;;;9.29;44.98
39729;BME280;25402;42.004;23.088;2023-05-07T02:38:06;97619.19;;;9.28;45.21
39729;BME280;25402;42.004;23.088;2023-05-07T02:40:36;97621.69;;;9.29;45.14
39729;BME280;25402;42.004;23.088;2023-05-07T02:43:04;97618.88;;;9.23;45.22
39729;BME280;25402;42.004;23.088;2023-05-07T02:45:31;97615.66;;;9.19;45.29
39729;BME280;25402;42.004;23.088;2023-05-07T02:47:58;97619.38;;;9.18;45.04
39729;BME280;25402;42.004;23.088;2023-05-07T02:50:26;97624.94;;;9.17;45.03
39729;BME280;25402;42.004;23.088;2023-05-07T02:52:53;97617.19;;;9.14;44.96
39729;BME280;25402;42.004;23.088;2023-05-07T02:55:20;97604.41;;;8.99;45.00
39729;BME280;25402;42.004;23.088;2023-05-07T02:57:47;97622.09;;;9.02;44.97
39729;BME280;25402;42.004;23.088;2023-05-07T03:00:15;97620.13;;;8.96;45.09
39729;BME280;25402;42.004;23.088;2023-05-07T03:02:43;97622.50;;;8.91;45.12
39729;BME280;25402;42.004;23.088;2023-05-07T03:05:10;97605.50;;;8.74;45.13
39729;BME280;25402;42.004;23.088;2023-05-07T03:07:39;97609.22;;;8.73;45.13
39729;BME280;25402;42.004;23.088;2023-05-07T03:10:06;97604.50;;;8.67;45.28
39729;BME280;25402;42.004;23.088;2023-05-07T03:12:34;97605.19;;;8.69;45.37
39729;BME280;25402;42.004;23.088;2023-05-07T03:15:01;97615.78;;;8.71;45.39
39729;BME280;25402;42.004;23.088;2023-05-07T03:17:28;97615.50;;;8.65;45.61
39729;BME280;25402;42.004;23.088;2023-05-07T03:19:54;97618.03;;;8.59;45.69
39729;BME280;25402;42.004;23.088;2023-05-07T03:22:21;97620.03;;;8.57;45.48
39729;BME280;25402;42.004;23.088;2023-05-07T03:24:49;97622.91;;;8.55;45.28
39729;BME280;25402;42.004;23.088;2023-05-07T03:27:16;97629.34;;;8.46;45.07
39729;BME280;25402;42.004;23.088;2023-05-07T03:29:43;97629.50;;;8.45;45.06
39729;BME280;25402;42.004;23.088;2023-05-07T03:32:10;97633.88;;;8.46;45.20
39729;BME280;25402;42.004;23.088;2023-05-07T03:34:37;97635.41;;;8.40;45.38
39729;BME280;25402;42.004;23.088;2023-05-07T03:37:03;97638.09;;;8.40;45.79
39729;BME280;25402;42.004;23.088;2023-05-07T03:39:30;97641.31;;;8.27;46.19
39729;BME280;25402;42.004;23.088;2023-05-07T03:41:58;97639.78;;;8.25;46.33
39729;BME280;25402;42.004;23.088;2023-05-07T03:44:26;97645.69;;;8.20;46.23
39729;BME280;25402;42.004;23.088;2023-05-07T03:46:53;97648.22;;;8.22;46.32
39729;BME280;25402;42.004;23.088;2023-05-07T03:49:20;97640.97;;;8.22;46.74
39729;BME280;25402;42.004;23.088;2023-05-07T03:51:47;97653.59;;;8.46;47.18
39729;BME280;25402;42.004;23.088;2023-05-07T03:54:14;97656.50;;;9.00;46.86
39729;BME280;25402;42.004;23.088;2023-05-07T03:56:41;97660.56;;;9.51;45.73
39729;BME280;25402;42.004;23.088;2023-05-07T03:59:09;97666.84;;;10.05;44.90
39729;BME280;25402;42.004;23.088;2023-05-07T04:01:36;97665.16;;;10.50;44.16
39729;BME280;25402;42.004;23.088;2023-05-07T04:04:03;97668.25;;;10.99;42.63
39729;BME280;25402;42.004;23.088;2023-05-07T04:06:30;97674.69;;;11.42;42.24
39729;BME280;25402;42.004;23.088;2023-05-07T04:08:57;97682.16;;;12.06;40.81
39729;BME280;25402;42.004;23.088;2023-05-07T04:11:24;97681.84;;;12.58;39.87
39729;BME280;25402;42.004;23.088;2023-05-07T04:13:51;97688.38;;;13.19;38.41
39729;BME280;25402;42.004;23.088;2023-05-07T04:16:19;97686.34;;;13.63;37.77
39729;BME280;25402;42.004;23.088;2023-05-07T04:18:46;97694.47;;;14.17;36.67
39729;BME280;25402;42.004;23.088;2023-05-07T04:21:15;97690.81;;;14.57;35.75
39729;BME280;25402;42.004;23.088;2023-05-07T04:23:42;97685.38;;;14.97;35.00
39729;BME280;25402;42.004;23.088;2023-05-07T04:26:09;97687.34;;;15.68;34.24
39729;BME280;25402;42.004;23.088;2023-05-07T04:28:36;97695.38;;;16.07;33.51
39729;BME280;25402;42.004;23.088;2023-05-07T04:31:03;97700.66;;;16.40;32.55
39729;BME280;25402;42.004;23.088;2023-05-07T04:33:32;97705.38;;;16.89;31.87
39729;BME280;25402;42.004;23.088;2023-05-07T04:36:00;97712.06;;;17.43;31.06
39729;BME280;25402;42.004;23.088;2023-05-07T04:38:29;97712.09;;;17.80;30.76
39729;BME280;25402;42.004;23.088;2023-05-07T04:40:57;97709.72;;;18.01;30.30
39729;BME280;25402;42.004;23.088;2023-05-07T04:43:23;97724.00;;;18.22;29.87
39729;BME280;25402;42.004;23.088;2023-05-07T04:45:51;97711.41;;;18.51;29.36
39729;BME280;25402;42.004;23.088;2023-05-07T04:48:18;97721.34;;;18.63;29.25
39729;BME280;25402;42.004;23.088;2023-05-07T04:50:48;97721.88;;;18.95;28.77
39729;BME280;25402;42.004;23.088;2023-05-07T04:53:16;97729.41;;;19.00;28.69
39729;BME280;25402;42.004;23.088;2023-05-07T04:55:43;97729.94;;;19.43;28.43
39729;BME280;25402;42.004;23.088;2023-05-07T04:58:10;97730.66;;;19.62;27.94
39729;BME280;25402;42.004;23.088;2023-05-07T05:00:37;97732.91;;;19.89;27.42
39729;BME280;25402;42.004;23.088;2023-05-07T05:03:05;97723.09;;;20.04;27.26
39729;BME280;25402;42.004;23.088;2023-05-07T05:05:32;97712.00;;;20.39;26.76
39729;BME280;25402;42.004;23.088;2023-05-07T05:08:00;97734.47;;;20.65;26.27
39729;BME280;25402;42.004;23.088;2023-05-07T05:10:27;97724.09;;;20.83;25.89
39729;BME280;25402;42.004;23.088;2023-05-07T05:12:54;97735.63;;;20.97;25.48
39729;BME280;25402;42.004;23.088;2023-05-07T05:15:21;97731.56;;;21.16;25.04
39729;BME280;25402;42.004;23.088;2023-05-07T05:17:48;97734.31;;;21.33;24.66
39729;BME280;25402;42.004;23.088;2023-05-07T05:20:15;97730.28;;;21.41;24.89
39729;BME280;25402;42.004;23.088;2023-05-07T05:22:42;97727.81;;;21.56;24.88
39729;BME280;25402;42.004;23.088;2023-05-07T05:25:10;97728.22;;;21.65;24.79
39729;BME280;25402;42.004;23.088;2023-05-07T05:27:37;97723.38;;;21.72;24.91
39729;BME280;25402;42.004;23.088;2023-05-07T05:30:05;97728.13;;;21.60;24.83
39729;BME280;25402;42.004;23.088;2023-05-07T05:32:32;97722.13;;;21.63;24.77
39729;BME280;25402;42.004;23.088;2023-05-07T05:34:59;97726.66;;;21.52;25.13
39729;BME280;25402;42.004;23.088;2023-05-07T05:37:26;97734.06;;;21.68;24.70
39729;BME280;25402;42.004;23.088;2023-05-07T05:39:53;97741.88;;;21.76;24.47
39729;BME280;25402;42.004;23.088;2023-05-07T05:42:22;97735.72;;;21.91;24.57
39729;BME280;25402;42.004;23.088;2023-05-07T05:44:49;97733.34;;;21.78;24.45
39729;BME280;25402;42.004;23.088;2023-05-07T05:47:16;97729.75;;;21.56;24.59
39729;BME280;25402;42.004;23.088;2023-05-07T05:49:43;97736.50;;;21.48;25.10
39729;BME280;25402;42.004;23.088;2023-05-07T05:52:12;97733.47;;;21.66;24.61
39729;BME280;25402;42.004;23.088;2023-05-07T05:54:39;97733.97;;;21.63;24.64
39729;BME280;25402;42.004;23.088;2023-05-07T05:57:06;97727.81;;;21.56;24.91
39729;BME280;25402;42.004;23.088;2023-05-07T05:59:34;97733.13;;;21.46;25.26
39729;BME280;25402;42.004;23.088;2023-05-07T06:02:01;97731.00;;;21.48;24.92
39729;BME280;25402;42.004;23.088;2023-05-07T06:04:28;97734.97;;;21.57;25.14
39729;BME280;25402;42.004;23.088;2023-05-07T06:06:54;97735.25;;;21.56;25.08
39729;BME280;25402;42.004;23.088;2023-05-07T06:09:22;97737.31;;;21.65;24.77
39729;BME280;25402;42.004;23.088;2023-05-07T06:11:49;97728.78;;;21.67;24.68
39729;BME280;25402;42.004;23.088;2023-05-07T06:14:15;97726.44;;;21.75;24.74
39729;BME280;25402;42.004;23.088;2023-05-07T06:16:44;97718.50;;;21.79;24.92
39729;BME280;25402;42.004;23.088;2023-05-07T06:19:10;97709.66;;;21.77;24.77
39729;BME280;25402;42.004;23.088;2023-05-07T06:21:38;97720.41;;;21.78;25.09
39729;BME280;25402;42.004;23.088;2023-05-07T06:24:06;97716.28;;;21.59;25.09
39729;BME280;25402;42.004;23.088;2023-05-07T06:26:33;97711.94;;;21.63;24.93
39729;BME280;25402;42.004;23.088;2023-05-07T06:29:00;97716.19;;;21.71;24.38
39729;BME280;25402;42.004;23.088;2023-05-07T06:31:30;97708.81;;;21.55;24.88
39729;BME280;25402;42.004;23.088;2023-05-07T06:33:59;97711.25;;;21.73;24.25
39729;BME280;25402;42.004;23.088;2023-05-07T06:36:27;97712.63;;;21.70;24.36
39729;BME280;25402;42.004;23.088;2023-05-07T06:38:54;97681.78;;;21.35;25.10
39729;BME280;25402;42.004;23.088;2023-05-07T06:41:21;97699.84;;;21.64;25.06
39729;BME280;25402;42.004;23.088;2023-05-07T06:43:48;97699.31;;;21.84;24.39
39729;BME280;25402;42.004;23.088;2023-05-07T06:46:15;97708.66;;;21.83;24.29
39729;BME280;25402;42.004;23.088;2023-05-07T06:48:42;97702.97;;;21.51;25.02
39729;BME280;25402;42.004;23.088;2023-05-07T06:51:11;97697.25;;;21.41;24.82
39729;BME280;25402;42.004;23.088;2023-05-07T06:53:37;97696.75;;;21.61;24.63
39729;BME280;25402;42.004;23.088;2023-05-07T06:56:05;97693.25;;;21.65;24.65
39729;BME280;25402;42.004;23.088;2023-05-07T06:58:32;97681.53;;;21.75;24.47
39729;BME280;25402;42.004;23.088;2023-05-07T07:00:59;97680.50;;;21.59;24.50
39729;BME280;25402;42.004;23.088;2023-05-07T07:03:26;97679.78;;;21.30;24.66
39729;BME280;25402;42.004;23.088;2023-05-07T07:05:53;97681.53;;;21.36;24.98
39729;BME280;25402;42.004;23.088;2023-05-07T07:08:22;97683.13;;;21.49;25.01
39729;BME280;25402;42.004;23.088;2023-05-07T07:10:49;97678.09;;;21.46;24.89
39729;BME280;25402;42.004;23.088;2023-05-07T07:13:16;97668.03;;;21.35;24.63
39729;BME280;25402;42.004;23.088;2023-05-07T07:15:43;97672.59;;;21.29;25.00
39729;BME280;25402;42.004;23.088;2023-05-07T07:18:11;97667.44;;;21.49;24.83
39729;BME280;25402;42.004;23.088;2023-05-07T07:20:38;97668.03;;;21.52;24.20
39729;BME280;25402;42.004;23.088;2023-05-07T07:23:05;97665.53;;;21.33;24.46
39729;BME280;25402;42.004;23.088;2023-05-07T07:25:33;97666.59;;;21.32;25.01
39729;BME280;25402;42.004;23.088;2023-05-07T07:28:00;97665.69;;;21.27;24.86
39729;BME280;25402;42.004;23.088;2023-05-07T07:30:27;97648.88;;;21.23;25.18
39729;BME280;25402;42.004;23.088;2023-05-07T07:32:54;97659.94;;;21.28;24.84
39729;BME280;25402;42.004;23.088;2023-05-07T07:35:25;97668.59;;;21.37;25.23
39729;BME280;25402;42.004;23.088;2023-05-07T07:37:52;97665.41;;;21.45;25.25
39729;BME280;25402;42.004;23.088;2023-05-07T07:40:19;97666.69;;;21.54;24.99
39729;BME280;25402;42.004;23.088;2023-05-07T07:42:48;97665.66;;;21.60;24.66
39729;BME280;25402;42.004;23.088;2023-05-07T07:45:14;97664.13;;;21.69;24.69
39729;BME280;25402;42.004;23.088;2023-05-07T07:47:41;97669.31;;;21.66;24.49
39729;BME280;25402;42.004;23.088;2023-05-07T07:50:09;97659.00;;;21.78;24.81
39729;BME280;25402;42.004;23.088;2023-05-07T07:52:36;97663.00;;;21.87;24.59
39729;BME280;25402;42.004;23.088;2023-05-07T07:55:03;97659.66;;;21.85;23.84
39729;BME280;25402;42.004;23.088;2023-05-07T07:57:31;97661.88;;;21.88;24.45
39729;BME280;25402;42.004;23.088;2023-05-07T07:59:59;97658.38;;;21.93;24.59
39729;BME280;25402;42.004;23.088;2023-05-07T08:02:26;97650.44;;;21.96;24.29
39729;BME280;25402;42.004;23.088;2023-05-07T08:04:53;97644.22;;;22.06;23.68
39729;BME280;25402;42.004;23.088;2023-05-07T08:07:20;97640.31;;;22.02;23.80
39729;BME280;25402;42.004;23.088;2023-05-07T08:09:48;97637.13;;;22.10;23.29
39729;BME280;25402;42.004;23.088;2023-05-07T08:12:15;97628.59;;;22.11;23.37
39729;BME280;25402;42.004;23.088;2023-05-07T08:14:42;97618.03;;;22.03;23.42
39729;BME280;25402;42.004;23.088;2023-05-07T08:17:10;97628.94;;;22.20;23.15
39729;BME280;25402;42.004;23.088;2023-05-07T08:19:37;97623.75;;;22.24;23.28
39729;BME280;25402;42.004;23.088;2023-05-07T08:22:04;97621.91;;;22.29;23.68
39729;BME280;25402;42.004;23.088;2023-05-07T08:24:31;97615.63;;;22.39;23.43
39729;BME280;25402;42.004;23.088;2023-05-07T08:26:57;97610.75;;;22.46;23.24
39729;BME280;25402;42.004;23.088;2023-05-07T08:29:24;97615.78;;;22.54;22.96
39729;BME280;25402;42.004;23.088;2023-05-07T08:31:51;97612.03;;;22.60;23.11
39729;BME280;25402;42.004;23.088;2023-05-07T08:34:20;97610.16;;;22.66;23.13
39729;BME280;25402;42.004;23.088;2023-05-07T08:36:47;97598.97;;;22.82;22.62
39729;BME280;25402;42.004;23.088;2023-05-07T08:39:15;97603.22;;;22.95;22.62
39729;BME280;25402;42.004;23.088;2023-05-07T08:41:44;97598.06;;;23.09;21.90
39729;BME280;25402;42.004;23.088;2023-05-07T08:44:12;97591.75;;;23.13;21.92
39729;BME280;25402;42.004;23.088;2023-05-07T08:46:43;97594.41;;;23.03;21.64
39729;BME280;25402;42.004;23.088;2023-05-07T08:49:13;97592.09;;;23.22;21.93
39729;BME280;25402;42.004;23.088;2023-05-07T08:51:42;97578.47;;;23.10;21.90
39729;BME280;25402;42.004;23.088;2023-05-07T08:54:10;97582.75;;;23.33;21.46
39729;BME280;25402;42.004;23.088;2023-05-07T08:56:38;97579.84;;;23.55;21.58
39729;BME280;25402;42.004;23.088;2023-05-07T08:59:06;97580.59;;;23.40;21.63
39729;BME280;25402;42.004;23.088;2023-05-07T09:01:33;97580.00;;;23.33;21.78
39729;BME280;25402;42.004;23.088;2023-05-07T09:04:01;97563.91;;;23.15;21.56
39729;BME280;25402;42.004;23.088;2023-05-07T09:06:28;97574.56;;;23.48;22.10
39729;BME280;25402;42.004;23.088;2023-05-07T09:08:57;97569.66;;;23.66;21.61
39729;BME280;25402;42.004;23.088;2023-05-07T09:11:26;97574.63;;;23.64;21.15
39729;BME280;25402;42.004;23.088;2023-05-07T09:13:54;97571.13;;;23.73;21.35
39729;BME280;25402;42.004;23.088;2023-05-07T09:16:24;97571.41;;;23.82;21.63
39729;BME280;25402;42.004;23.088;2023-05-07T09:18:52;97553.47;;;23.84;21.52
39729;BME280;25402;42.004;23.088;2023-05-07T09:21:20;97554.38;;;24.15;21.48
39729;BME280;25402;42.004;23.088;2023-05-07T09:23:49;97542.81;;;24.34;21.19
39729;BME280;25402;42.004;23.088;2023-05-07T09:26:18;97543.34;;;24.41;21.08
39729;BME280;25402;42.004;23.088;2023-05-07T09:28:47;97544.47;;;24.70;21.33
39729;BME280;25402;42.004;23.088;2023-05-07T09:31:14;97543.34;;;24.91;21.05
39729;BME280;25402;42.004;23.088;2023-05-07T09:33:41;97530.03;;;25.04;21.09
39729;BME280;25402;42.004;23.088;2023-05-07T09:36:09;97537.78;;;25.27;20.66
39729;BME280;25402;42.004;23.088;2023-05-07T09:38:36;97527.78;;;25.31;20.80
39729;BME280;25402;42.004;23.088;2023-05-07T09:41:04;97529.47;;;25.17;20.37
39729;BME280;25402;42.004;23.088;2023-05-07T09:43:33;97527.31;;;24.99;20.44
39729;BME280;25402;42.004;23.088;2023-05-07T09:46:07;97521.78;;;24.99;20.85
39729;BME280;25402;42.004;23.088;2023-05-07T09:48:39;97520.31;;;25.21;20.68
39729;BME280;25402;42.004;23.088;2023-05-07T09:51:13;97511.41;;;25.35;20.02
39729;BME280;25402;42.004;23.088;2023-05-07T09:53:43;97510.78;;;25.53;19.34
39729;BME280;25402;42.004;23.088;2023-05-07T09:56:13;97515.19;;;25.64;19.32
39729;BME280;25402;42.004;23.088;2023-05-07T09:58:42;97511.00;;;25.67;18.55
39729;BME280;25402;42.004;23.088;2023-05-07T10:01:11;97507.66;;;25.75;18.18
39729;BME280;25402;42.004;23.088;2023-05-07T10:03:40;97510.50;;;25.59;18.54
39729;BME280;25402;42.004;23.088;2023-05-07T10:06:09;97501.00;;;25.71;18.45
39729;BME280;25402;42.004;23.088;2023-05-07T10:08:37;97494.44;;;25.61;17.99
39729;BME280;25402;42.004;23.088;2023-05-07T10:11:04;97495.94;;;25.34;18.47
39729;BME280;25402;42.004;23.088;2023-05-07T10:13:32;97492.03;;;25.40;18.32
39729;BME280;25402;42.004;23.088;2023-05-07T10:16:03;97486.94;;;25.62;18.53
39729;BME280;25402;42.004;23.088;2023-05-07T10:18:30;97484.84;;;25.93;18.34
39729;BME280;25402;42.004;23.088;2023-05-07T10:21:02;97492.84;;;25.45;18.08
39729;BME280;25402;42.004;23.088;2023-05-07T10:23:33;97481.28;;;25.28;18.00
39729;BME280;25402;42.004;23.088;2023-05-07T10:26:02;97487.25;;;25.55;17.98
39729;BME280;25402;42.004;23.088;2023-05-07T10:28:33;97480.38;;;25.43;16.43
39729;BME280;25402;42.004;23.088;2023-05-07T10:31:11;97471.63;;;25.80;16.06
39729;BME280;25402;42.004;23.088;2023-05-07T10:33:42;97474.63;;;25.34;16.75
39729;BME280;25402;42.004;23.088;2023-05-07T10:36:11;97462.59;;;24.84;18.09
39729;BME280;25402;42.004;23.088;2023-05-07T10:38:38;97467.16;;;25.24;18.27
39729;BME280;25402;42.004;23.088;2023-05-07T10:41:06;97467.38;;;25.43;17.58
39729;BME280;25402;42.004;23.088;2023-05-07T10:43:40;97460.38;;;26.00;16.95
39729;BME280;25402;42.004;23.088;2023-05-07T10:46:17;97454.00;;;26.39;16.63
39729;BME280;25402;42.004;23.088;2023-05-07T10:49:09;97444.06;;;26.61;16.56
39729;BME280;25402;42.004;23.088;2023-05-07T10:51:37;97450.97;;;26.64;16.32
39729;BME280;25402;42.004;23.088;2023-05-07T10:54:22;97449.88;;;26.65;15.55
39729;BME280;25402;42.004;23.088;2023-05-07T10:56:52;97445.50;;;26.59;15.77
39729;BME280;25402;42.004;23.088;2023-05-07T10:59:36;97451.53;;;26.66;15.59
39729;BME280;25402;42.004;23.088;2023-05-07T11:02:10;97441.63;;;26.60;15.40
39729;BME280;25402;42.004;23.088;2023-05-07T11:04:39;97437.19;;;26.59;15.71
39729;BME280;25402;42.004;23.088;2023-05-07T11:07:24;97444.00;;;26.95;16.37
39729;BME280;25402;42.004;23.088;2023-05-07T11:09:55;97444.22;;;27.04;15.35
39729;BME280;25402;42.004;23.088;2023-05-07T11:12:53;97433.22;;;27.18;15.25
39729;BME280;25402;42.004;23.088;2023-05-07T11:15:37;97441.00;;;27.40;14.58
39729;BME280;25402;42.004;23.088;2023-05-07T11:18:06;97443.06;;;27.29;15.24
39729;BME280;25402;42.004;23.088;2023-05-07T11:20:53;97445.69;;;27.63;14.67
39729;BME280;25402;42.004;23.088;2023-05-07T11:26:46;97432.78;;;27.91;14.24
39729;BME280;25402;42.004;23.088;2023-05-07T11:29:15;97441.94;;;28.10;14.42
39729;BME280;25402;42.004;23.088;2023-05-07T11:31:42;97441.94;;;28.10;14.41
39729;BME280;25402;42.004;23.088;2023-05-07T11:34:11;97432.53;;;28.06;14.86
39729;BME280;25402;42.004;23.088;2023-05-07T11:36:42;97430.50;;;28.30;14.49
39729;BME280;25402;42.004;23.088;2023-05-07T11:39:24;97429.28;;;28.50;14.63
39729;BME280;25402;42.004;23.088;2023-05-07T11:41:51;97427.47;;;28.59;14.03
39729;BME280;25402;42.004;23.088;2023-05-07T11:44:18;97425.75;;;28.31;14.61
39729;BME280;25402;42.004;23.088;2023-05-07T11:46:45;97423.34;;;28.24;14.13
39729;BME280;25402;42.004;23.088;2023-05-07T11:49:13;97421.22;;;28.35;15.09
39729;BME280;25402;42.004;23.088;2023-05-07T11:51:40;97417.44;;;28.45;15.10
39729;BME280;25402;42.004;23.088;2023-05-07T11:54:08;97421.16;;;28.54;14.76
39729;BME280;25402;42.004;23.088;2023-05-07T11:56:37;97417.06;;;28.65;14.46
39729;BME280;25402;42.004;23.088;2023-05-07T11:59:04;97423.13;;;28.67;14.22
39729;BME280;25402;42.004;23.088;2023-05-07T12:01:31;97411.63;;;28.73;14.10
39729;BME280;25402;42.004;23.088;2023-05-07T12:03:58;97410.00;;;28.86;14.30
39729;BME280;25402;42.004;23.088;2023-05-07T12:06:30;97404.63;;;28.76;13.97
39729;BME280;25402;42.004;23.088;2023-05-07T12:08:57;97410.91;;;28.82;14.29
39729;BME280;25402;42.004;23.088;2023-05-07T12:11:25;97408.34;;;28.85;14.36
39729;BME280;25402;42.004;23.088;2023-05-07T12:13:54;97402.59;;;28.95;13.96
39729;BME280;25402;42.004;23.088;2023-05-07T12:16:21;97403.59;;;28.86;13.71
39729;BME280;25402;42.004;23.088;2023-05-07T12:18:48;97404.22;;;29.10;13.89
39729;BME280;25402;42.004;23.088;2023-05-07T12:21:15;97396.72;;;29.24;13.38
39729;BME280;25402;42.004;23.088;2023-05-07T12:23:44;97387.91;;;29.03;14.00
39729;BME280;25402;42.004;23.088;2023-05-07T12:26:11;97385.72;;;28.46;14.32
39729;BME280;25402;42.004;23.088;2023-05-07T12:28:39;97368.94;;;27.86;14.66
39729;BME280;25402;42.004;23.088;2023-05-07T12:31:06;97355.66;;;28.15;14.23
39729;BME280;25402;42.004;23.088;2023-05-07T12:33:34;97368.91;;;28.51;13.89
39729;BME280;25402;42.004;23.088;2023-05-07T12:36:05;97370.19;;;28.72;13.78
39729;BME280;25402;42.004;23.088;2023-05-07T12:38:37;97369.66;;;28.97;14.11
39729;BME280;25402;42.004;23.088;2023-05-07T12:41:08;97370.72;;;29.15;13.68
39729;BME280;25402;42.004;23.088;2023-05-07T12:43:35;97358.66;;;29.20;13.59
39729;BME280;25402;42.004;23.088;2023-05-07T12:46:04;97354.72;;;29.21;13.58
39729;BME280;25402;42.004;23.088;2023-05-07T12:48:31;97353.84;;;29.34;13.45
39729;BME280;25402;42.004;23.088;2023-05-07T12:50:59;97337.81;;;29.17;13.61
39729;BME280;25402;42.004;23.088;2023-05-07T12:53:27;97346.38;;;29.07;13.83
39729;BME280;25402;42.004;23.088;2023-05-07T12:55:56;97344.44;;;28.80;14.46
39729;BME280;25402;42.004;23.088;2023-05-07T12:58:28;97343.41;;;28.76;14.45
39729;BME280;25402;42.004;23.088;2023-05-07T13:00:56;97343.56;;;29.07;13.83